Columbus, NE

7:12 PM CST on February 05, 2016 (GMT -0600)
Columbus Municipal | | Change Station
CLOSE
Current Station
Airport
Location: Columbus,
Elevation: 1444 ft
Nearby Weather Stations

Elev 1444 ft 41.45 °N, 97.34 °W | Updated 17 minutes ago

Overcast
Overcast
34 °F
Feels Like 29 °F
N
6
Wind Variable Wind from WSW

Today
High -- | Low -- °F
--% Chance of Precip.
Yesterday
High -- | Low -- °F
Precip. -- in
Pressure 30.22 in
Visibility 10.0 miles
Clouds Mostly Cloudy 4900 ft
Overcast 10000 ft
Windchill 29 °F
Dew Point 25 °F
Humidity 70%
Rainfall 0.00 in
Snow Depth Not available.
7:37 AM 5:50 PM
Waning Crescent, 8% visible
METAR KOLU 060055Z AUTO 25005KT 10SM BKN049 OVC100 01/M04 A3022 RMK AO2 RVRNO
Pressure 30.22 in
Visibility 10.0 miles
Clouds Mostly Cloudy 4900 ft
Overcast 10000 ft
Windchill 29 °F
Dew Point 25 °F
Humidity 70%
Rainfall 0.00 in
Snow Depth Not available.
7:37 AM 5:50 PM
Waning Crescent, 8% visible
METAR KOLU 060055Z AUTO 25005KT 10SM BKN049 OVC100 01/M04 A3022 RMK AO2 RVRNO

10-Day Weather Forecast

Almanac

Astronomy

Feb. 05, 2016 Rise Set
Actual Time
Civil Twilight
Nautical Twilight
Astronomical Twilight
Moon
Length of Visible Light
Length of Day
Tomorrow will be .
, % of the Moon is Illuminated

Today's Extremes

State Highs State Lows

Community

WunderPhotos

Upload Photos

1,890,904 photos uploaded!

WunderBlog® & News

Nearby

Air Quality

  Air Quality AQ Index Pollutant
Not available.

Snow Depth

Station Depth Elevation

Earthquake Activity

City Distance Mag. Time & Date
Minimum magnitude displayed is 2.5.

Coastal Water Temperatures

Place Temperature

Stations

Nearby Weather Stations

Station Location Temp. Windchill Dew Point Humidity Wind Precip. Elev Updated Type
                   

Watches & Warnings

There are currently no watches in effect.